Time,TemperatureF,DewpointF,PressureIn,WindDirection,WindDirectionDegrees,WindSpeedMPH,WindSpeedGustMPH,Humidity,HourlyPrecipIn,Conditions,Clouds,dailyrainin,SoftwareType,DateUTC
2013-04-16 00:13:00,63.4,55.0,29.92,West,260,4.0,-999.0,73,-99.99,,,0.00,weatherlink.com 1.10,2013-04-16 04:13:00,
2013-04-16 00:28:00,63.3,55.0,29.91,SSE,163,2.0,-999.0,73,-99.99,,,0.00,weatherlink.com 1.10,2013-04-16 04:28:00,
2013-04-16 00:43:00,61.9,54.0,29.92,SSE,155,0.0,-999.0,76,-99.99,,,0.00,weatherlink.com 1.10,2013-04-16 04:43:00,
2013-04-16 00:58:00,61.3,54.0,29.91,South,186,2.0,-999.0,77,-99.99,,,0.00,weatherlink.com 1.10,2013-04-16 04:58:00,
2013-04-16 01:13:00,60.7,54.0,29.91,SSE,153,2.0,-999.0,79,-99.99,,,0.00,weatherlink.com 1.10,2013-04-16 05:13:00,
2013-04-16 01:28:00,60.4,54.0,29.89,SE,139,5.0,-999.0,80,-99.99,,,0.00,weatherlink.com 1.10,2013-04-16 05:28:00,
2013-04-16 01:43:00,59.8,54.0,29.89,SSE,153,3.0,-999.0,81,-99.99,,,0.00,weatherlink.com 1.10,2013-04-16 05:43:00,
2013-04-16 01:58:00,59.5,54.0,29.89,South,169,3.0,-999.0,82,-99.99,,,0.00,weatherlink.com 1.10,2013-04-16 05:58:00,
2013-04-16 02:13:00,59.8,54.0,29.88,SE,128,2.0,-999.0,81,-99.99,,,0.00,weatherlink.com 1.10,2013-04-16 06:13:00,
2013-04-16 02:28:00,60.4,55.0,29.88,SW,219,4.0,-999.0,81,-99.99,,,0.00,weatherlink.com 1.10,2013-04-16 06:28:00,
2013-04-16 02:43:00,60.7,55.0,29.89,SW,215,2.0,-999.0,80,-99.99,,,0.00,weatherlink.com 1.10,2013-04-16 06:43:00,
2013-04-16 02:58:00,61.1,55.0,29.88,SSE,153,7.0,-999.0,79,-99.99,,,0.00,weatherlink.com 1.10,2013-04-16 06:58:00,
2013-04-16 03:13:00,61.2,55.0,29.88,SSW,200,4.0,-999.0,79,-99.99,,,0.00,weatherlink.com 1.10,2013-04-16 07:13:00,
2013-04-16 03:28:00,61.3,55.0,29.89,South,169,3.0,-999.0,79,-99.99,,,0.00,weatherlink.com 1.10,2013-04-16 07:28:00,
2013-04-16 03:43:00,61.4,55.0,29.90,SE,127,0.0,-999.0,79,-99.99,,,0.00,weatherlink.com 1.10,2013-04-16 07:43:00,
2013-04-16 03:58:00,61.3,55.0,29.91,SSW,204,0.0,-999.0,79,-99.99,,,0.00,weatherlink.com 1.10,2013-04-16 07:58:00,
2013-04-16 04:13:00,61.3,55.0,29.91,SSW,210,0.0,-999.0,79,-99.99,,,0.00,weatherlink.com 1.10,2013-04-16 08:13:00,
2013-04-16 04:28:00,61.3,55.0,29.91,South,188,6.0,-999.0,80,-99.99,,,0.00,weatherlink.com 1.10,2013-04-16 08:28:00,
2013-04-16 04:43:00,61.1,55.0,29.91,South,188,3.0,-999.0,80,-99.99,,,0.00,weatherlink.com 1.10,2013-04-16 08:43:00,
2013-04-16 04:58:00,60.1,54.0,29.92,WNW,302,9.0,-999.0,79,-99.99,,,0.00,weatherlink.com 1.10,2013-04-16 08:58:00,
2013-04-16 05:13:00,56.4,52.0,29.92,WNW,295,5.0,-999.0,84,-99.99,,,0.00,weatherlink.com 1.10,2013-04-16 09:13:00,
2013-04-16 05:28:00,55.4,51.0,29.93,WNW,302,1.0,-999.0,86,-99.99,,,0.00,weatherlink.com 1.10,2013-04-16 09:28:00,
2013-04-16 05:43:00,54.4,51.0,29.93,WNW,302,3.0,-999.0,87,-99.99,,,0.00,weatherlink.com 1.10,2013-04-16 09:43:00,
2013-04-16 05:58:00,53.2,49.0,29.93,NW,323,4.0,-999.0,86,-99.99,,,0.00,weatherlink.com 1.10,2013-04-16 09:58:00,
2013-04-16 06:13:00,-999.0,-99.9,29.95,North,-999,-999.0,-999.0,-999,-99.99,,,0.00,weatherlink.com 1.10,2013-04-16 10:13:00,
2013-04-16 06:28:00,-999.0,-99.9,29.97,North,-999,-999.0,-999.0,-999,-99.99,,,0.00,weatherlink.com 1.10,2013-04-16 10:28:00,
2013-04-16 06:43:00,-999.0,-99.9,30.01,North,-999,-999.0,-999.0,-999,-99.99,,,0.00,weatherlink.com 1.10,2013-04-16 10:43:00,
2013-04-16 06:58:00,-999.0,-99.9,29.99,North,-999,-999.0,-999.0,-999,-99.99,,,0.00,weatherlink.com 1.10,2013-04-16 10:58:00,
2013-04-16 07:13:00,-999.0,-99.9,29.96,North,-999,-999.0,-999.0,-999,-99.99,,,0.00,weatherlink.com 1.10,2013-04-16 11:13:00,
2013-04-16 07:28:00,-999.0,-99.9,29.96,North,-999,-999.0,-999.0,-999,-99.99,,,0.00,weatherlink.com 1.10,2013-04-16 11:28:00,
2013-04-16 07:43:00,-999.0,-99.9,29.98,North,-999,-999.0,-999.0,-999,-99.99,,,0.00,weatherlink.com 1.10,2013-04-16 11:43:00,
2013-04-16 07:58:00,-999.0,-99.9,29.95,North,-999,-999.0,-999.0,-999,-99.99,,,0.00,weatherlink.com 1.10,2013-04-16 11:58:00,
2013-04-16 08:13:00,-999.0,-99.9,30.00,North,-999,-999.0,-999.0,-999,-99.99,,,0.00,weatherlink.com 1.10,2013-04-16 12:13:00,
2013-04-16 08:28:00,50.2,49.0,30.00,WNW,297,3.0,-999.0,97,-99.99,,,0.00,weatherlink.com 1.10,2013-04-16 12:28:00,
2013-04-16 08:43:00,50.3,50.0,29.97,NNW,339,1.0,-999.0,98,-99.99,,,0.02,weatherlink.com 1.10,2013-04-16 12:43:00,
2013-04-16 08:58:00,50.1,50.0,30.00,WNW,297,4.0,-999.0,98,-99.99,,,0.02,weatherlink.com 1.10,2013-04-16 12:58:00,
2013-04-16 09:13:00,50.1,50.0,30.02,West,269,2.0,-999.0,98,-99.99,,,0.02,weatherlink.com 1.10,2013-04-16 13:13:00,
2013-04-16 09:28:00,50.1,50.0,30.03,NW,308,2.0,-999.0,98,-99.99,,,0.02,weatherlink.com 1.10,2013-04-16 13:28:00,
2013-04-16 09:43:00,50.0,50.0,30.03,WNW,299,4.0,-999.0,98,-99.99,,,0.02,weatherlink.com 1.10,2013-04-16 13:43:00,
2013-04-16 09:58:00,50.0,50.0,30.03,NW,311,2.0,-999.0,98,-99.99,,,0.02,weatherlink.com 1.10,2013-04-16 13:58:00,
2013-04-16 10:14:00,50.1,50.0,30.04,West,271,4.0,-999.0,98,-99.99,,,0.02,weatherlink.com 1.10,2013-04-16 14:14:00,
2013-04-16 10:28:00,50.3,50.0,30.05,WNW,288,0.0,-999.0,98,-99.99,,,0.02,weatherlink.com 1.10,2013-04-16 14:28:00,
2013-04-16 10:43:00,50.1,49.0,30.05,WNW,287,3.0,-999.0,97,-99.99,,,0.02,weatherlink.com 1.10,2013-04-16 14:43:00,
2013-04-16 10:58:00,50.2,49.0,30.06,West,262,5.0,-999.0,97,-99.99,,,0.02,weatherlink.com 1.10,2013-04-16 14:58:00,
2013-04-16 11:13:00,50.4,50.0,30.07,WNW,291,3.0,-999.0,97,-99.99,,,0.02,weatherlink.com 1.10,2013-04-16 15:13:00,
2013-04-16 11:28:00,50.4,50.0,30.07,WNW,297,4.0,-999.0,97,-99.99,,,0.02,weatherlink.com 1.10,2013-04-16 15:28:00,
2013-04-16 11:43:00,50.4,50.0,30.07,WNW,295,3.0,-999.0,97,-99.99,,,0.02,weatherlink.com 1.10,2013-04-16 15:43:00,
2013-04-16 11:58:00,51.0,51.0,30.06,West,271,3.0,-999.0,98,-99.99,,,0.03,weatherlink.com 1.10,2013-04-16 15:58:00,
2013-04-16 12:13:00,51.0,50.0,30.06,NW,306,3.0,-999.0,97,-99.99,,,0.03,weatherlink.com 1.10,2013-04-16 16:13:00,
2013-04-16 12:28:00,51.7,50.0,30.06,NW,314,3.0,-999.0,94,-99.99,,,0.03,weatherlink.com 1.10,2013-04-16 16:28:00,
2013-04-16 12:43:00,53.5,51.0,30.07,West,278,4.0,-999.0,90,-99.99,,,0.03,weatherlink.com 1.10,2013-04-16 16:43:00,
2013-04-16 12:58:00,54.7,51.0,30.07,WNW,296,7.0,-999.0,87,-99.99,,,0.03,weatherlink.com 1.10,2013-04-16 16:58:00,
2013-04-16 13:13:00,55.9,50.0,30.06,WNW,297,4.0,-999.0,81,-99.99,,,0.03,weatherlink.com 1.10,2013-04-16 17:13:00,
2013-04-16 13:28:00,56.6,50.0,30.06,West,264,6.0,-999.0,78,-99.99,,,0.03,weatherlink.com 1.10,2013-04-16 17:28:00,
2013-04-16 13:43:00,57.6,51.0,30.06,WNW,284,4.0,-999.0,78,-99.99,,,0.03,weatherlink.com 1.10,2013-04-16 17:43:00,
2013-04-16 13:58:00,57.8,51.0,30.07,WSW,249,8.0,-999.0,77,-99.99,,,0.03,weatherlink.com 1.10,2013-04-16 17:58:00,
2013-04-16 14:13:00,57.9,50.0,30.08,WNW,290,9.0,-999.0,76,-99.99,,,0.03,weatherlink.com 1.10,2013-04-16 18:13:00,
2013-04-16 14:28:00,58.3,50.0,30.09,WNW,283,3.0,-999.0,74,-99.99,,,0.03,weatherlink.com 1.10,2013-04-16 18:28:00,
2013-04-16 14:43:00,59.5,50.0,30.09,WNW,298,10.0,-999.0,72,-99.99,,,0.03,weatherlink.com 1.10,2013-04-16 18:43:00,
2013-04-16 14:58:00,60.6,51.0,30.10,West,259,7.0,-999.0,70,-99.99,,,0.03,weatherlink.com 1.10,2013-04-16 18:58:00,
2013-04-16 15:13:00,61.1,50.0,30.10,WNW,284,7.0,-999.0,68,-99.99,,,0.03,weatherlink.com 1.10,2013-04-16 19:13:00,
2013-04-16 15:28:00,61.8,50.0,30.10,WNW,291,11.0,-999.0,66,-99.99,,,0.03,weatherlink.com 1.10,2013-04-16 19:28:00,
2013-04-16 15:43:00,61.0,49.0,30.10,WNW,288,7.0,-999.0,65,-99.99,,,0.03,weatherlink.com 1.10,2013-04-16 19:43:00,
2013-04-16 15:58:00,61.4,50.0,30.11,West,278,4.0,-999.0,67,-99.99,,,0.03,weatherlink.com 1.10,2013-04-16 19:58:00,
2013-04-16 16:13:00,61.0,49.0,30.11,WNW,291,3.0,-999.0,64,-99.99,,,0.03,weatherlink.com 1.10,2013-04-16 20:13:00,
2013-04-16 16:28:00,61.5,47.0,30.12,WNW,286,3.0,-999.0,60,-99.99,,,0.03,weatherlink.com 1.10,2013-04-16 20:28:00,
2013-04-16 16:43:00,61.6,47.0,30.11,West,278,5.0,-999.0,59,-99.99,,,0.03,weatherlink.com 1.10,2013-04-16 20:43:00,
2013-04-16 16:58:00,61.6,46.0,30.11,WNW,298,5.0,-999.0,57,-99.99,,,0.03,weatherlink.com 1.10,2013-04-16 20:58:00,
2013-04-16 17:13:00,61.5,44.0,30.12,NW,307,3.0,-999.0,54,-99.99,,,0.03,weatherlink.com 1.10,2013-04-16 21:13:00,
2013-04-16 17:28:00,61.2,43.0,30.12,NW,307,3.0,-999.0,51,-99.99,,,0.03,weatherlink.com 1.10,2013-04-16 21:28:00,
2013-04-16 17:43:00,60.9,44.0,30.12,WNW,289,5.0,-999.0,54,-99.99,,,0.03,weatherlink.com 1.10,2013-04-16 21:43:00,
2013-04-16 17:58:00,61.0,44.0,30.12,WNW,295,3.0,-999.0,54,-99.99,,,0.03,weatherlink.com 1.10,2013-04-16 21:58:00,
2013-04-16 18:13:00,61.3,42.0,30.13,NW,307,7.0,-999.0,50,-99.99,,,0.03,weatherlink.com 1.10,2013-04-16 22:13:00,
2013-04-16 18:28:00,60.3,43.0,30.14,NW,304,2.0,-999.0,53,-99.99,,,0.03,weatherlink.com 1.10,2013-04-16 22:28:00,
2013-04-16 18:43:00,60.0,41.0,30.14,WNW,297,4.0,-999.0,50,-99.99,,,0.03,weatherlink.com 1.10,2013-04-16 22:43:00,
2013-04-16 18:58:00,59.8,42.0,30.14,NNW,346,4.0,-999.0,53,-99.99,,,0.03,weatherlink.com 1.10,2013-04-16 22:58:00,
2013-04-16 19:13:00,59.3,42.0,30.14,WNW,295,3.0,-999.0,53,-99.99,,,0.03,weatherlink.com 1.10,2013-04-16 23:13:00,
2013-04-16 19:28:00,59.0,43.0,30.15,West,273,2.0,-999.0,56,-99.99,,,0.03,weatherlink.com 1.10,2013-04-16 23:28:00,
2013-04-16 19:43:00,58.5,44.0,30.15,WNW,288,0.0,-999.0,60,-99.99,,,0.03,weatherlink.com 1.10,2013-04-16 23:43:00,
2013-04-16 19:58:00,58.0,45.0,30.16,West,263,0.0,-999.0,62,-99.99,,,0.03,weatherlink.com 1.10,2013-04-16 23:58:00,
2013-04-16 20:13:00,57.7,44.0,30.15,WNW,298,0.0,-999.0,61,-99.99,,,0.03,weatherlink.com 1.10,2013-04-17 00:13:00,
2013-04-16 20:28:00,57.7,42.0,30.16,NW,306,0.0,-999.0,57,-99.99,,,0.03,weatherlink.com 1.10,2013-04-17 00:28:00,
2013-04-16 20:43:00,57.0,44.0,30.17,NW,321,1.0,-999.0,63,-99.99,,,0.03,weatherlink.com 1.10,2013-04-17 00:43:00,
2013-04-16 20:58:00,57.0,43.0,30.16,NNW,327,0.0,-999.0,59,-99.99,,,0.03,weatherlink.com 1.10,2013-04-17 00:58:00,
2013-04-16 21:13:00,57.0,41.0,30.16,NW,326,0.0,-999.0,56,-99.99,,,0.03,weatherlink.com 1.10,2013-04-17 01:13:00,
2013-04-16 21:28:00,56.7,41.0,30.18,NNW,327,0.0,-999.0,56,-99.99,,,0.03,weatherlink.com 1.10,2013-04-17 01:28:00,
2013-04-16 21:43:00,56.1,41.0,30.18,NNW,328,0.0,-999.0,58,-99.99,,,0.03,weatherlink.com 1.10,2013-04-17 01:43:00,
2013-04-16 21:58:00,55.8,41.0,30.18,NNW,330,0.0,-999.0,59,-99.99,,,0.03,weatherlink.com 1.10,2013-04-17 01:58:00,
2013-04-16 22:13:00,55.5,40.0,30.18,NNW,339,0.0,-999.0,56,-99.99,,,0.03,weatherlink.com 1.10,2013-04-17 02:13:00,
2013-04-16 22:28:00,55.6,40.0,30.20,NW,316,1.0,-999.0,57,-99.99,,,0.03,weatherlink.com 1.10,2013-04-17 02:28:00,
2013-04-16 22:43:00,55.6,39.0,30.19,NNW,330,0.0,-999.0,54,-99.99,,,0.03,weatherlink.com 1.10,2013-04-17 02:43:00,
2013-04-16 22:58:00,55.5,39.0,30.20,NW,304,0.0,-999.0,55,-99.99,,,0.03,weatherlink.com 1.10,2013-04-17 02:58:00,
2013-04-16 23:13:00,55.0,41.0,30.20,NW,313,0.0,-999.0,60,-99.99,,,0.03,weatherlink.com 1.10,2013-04-17 03:13:00,
2013-04-16 23:28:00,54.6,40.0,30.20,NW,318,0.0,-999.0,59,-99.99,,,0.03,weatherlink.com 1.10,2013-04-17 03:28:00,
2013-04-16 23:43:00,54.2,40.0,30.20,NNW,330,2.0,-999.0,60,-99.99,,,0.03,weatherlink.com 1.10,2013-04-17 03:43:00,
2013-04-16 23:58:00,53.2,40.0,30.20,NNW,328,0.0,-999.0,62,-99.99,,,0.03,weatherlink.com 1.10,2013-04-17 03:58:00,